CheckWX is a tool to help pilots better visualize weather data.  It is not intended as a substitute for an official pre-flight weather briefing.

01:08:43 UTC

CYVQ METAR
Norman Wells Airport
Norman Wells, Canada
Current

1 hour ago

CYVQ 240000Z 10013G23KT 30SM FEW027 FEW060 BKN250 01/M05 A3009 RMK SC1SC1CI6 SC TR SLP197
Observed
Mar-24 @ 00:00 UTC
Wind
  • 100° at 13 KTS
  • Gusting to 23 KTS
Visibility
30 SM
Flight Rules
VFR
Cloud Levels
  • Few at 2,700' AGL
  • Few at 6,000' AGL
  • Broken at 25,000' AGL
Temperature
C / 34°F
Dewpoint
-5°C / 23°F
Humidity
65%
Altimeter
30.09" Hg
Pressure
1019.7 hPa
Previous

2 hours ago

CYVQ 232300Z 10012G22KT 30SM SCT027 BKN250 01/M05 A3011 RMK SC3CI4 SLP204
Observed
Mar-23 @ 23:00 UTC
Wind
  • 100° at 12 KTS
  • Gusting to 22 KTS
Visibility
30 SM
Flight Rules
VFR
Cloud Levels
  • Scattered at 2,700' AGL
  • Broken at 25,000' AGL
Temperature
C / 34°F
Dewpoint
-5°C / 23°F
Humidity
65%
Altimeter
30.11" Hg
Pressure
1020.4 hPa
Previous

3 hours ago

CYVQ 232200Z 10014G26KT 30SM BKN027 BKN040 00/M06 A3012 RMK SC6SC1 SLP208
Observed
Mar-23 @ 22:00 UTC
Wind
  • 100° at 14 KTS
  • Gusting to 26 KTS
Visibility
30 SM
Flight Rules
MVFR
Cloud Levels
  • Broken at 2,700' AGL
  • Broken at 4,000' AGL
Temperature
C / 32°F
Dewpoint
-6°C / 21°F
Humidity
64%
Altimeter
30.12" Hg
Pressure
1020.8 hPa